sensor_id;sensor_type;location;lat;lon;timestamp;pressure;altitude;pressure_sealevel;temperature
67515;BMP280;60646;55.802;37.032;2023-03-01T00:01:25;98919.75;;;1.13
67515;BMP280;60646;55.802;37.032;2023-03-01T00:03:52;98913.16;;;1.09
67515;BMP280;60646;55.802;37.032;2023-03-01T00:06:18;98898.88;;;0.97
67515;BMP280;60646;55.802;37.032;2023-03-01T00:08:44;98879.19;;;0.80
67515;BMP280;60646;55.802;37.032;2023-03-01T00:11:19;98890.94;;;0.88
67515;BMP280;60646;55.802;37.032;2023-03-01T00:13:47;98904.13;;;0.97
67515;BMP280;60646;55.802;37.032;2023-03-01T00:16:19;98894.84;;;0.83
67515;BMP280;60646;55.802;37.032;2023-03-01T00:18:45;98889.72;;;0.80
67515;BMP280;60646;55.802;37.032;2023-03-01T00:21:12;98913.44;;;0.89
67515;BMP280;60646;55.802;37.032;2023-03-01T00:23:38;98909.03;;;0.86
67515;BMP280;60646;55.802;37.032;2023-03-01T00:26:09;98891.72;;;0.76
67515;BMP280;60646;55.802;37.032;2023-03-01T00:28:37;98896.53;;;0.77
67515;BMP280;60646;55.802;37.032;2023-03-01T00:31:07;98905.47;;;0.80
67515;BMP280;60646;55.802;37.032;2023-03-01T00:33:33;98888.72;;;0.65
67515;BMP280;60646;55.802;37.032;2023-03-01T00:35:59;98871.84;;;0.53
67515;BMP280;60646;55.802;37.032;2023-03-01T00:38:26;98868.16;;;0.51
67515;BMP280;60646;55.802;37.032;2023-03-01T00:40:52;98897.53;;;0.71
67515;BMP280;60646;55.802;37.032;2023-03-01T00:43:18;98872.69;;;0.50
67515;BMP280;60646;55.802;37.032;2023-03-01T00:45:44;98874.03;;;0.55
67515;BMP280;60646;55.802;37.032;2023-03-01T00:48:10;98886.75;;;0.56
67515;BMP280;60646;55.802;37.032;2023-03-01T00:50:35;98879.53;;;0.47
67515;BMP280;60646;55.802;37.032;2023-03-01T00:53:01;98894.81;;;0.62
67515;BMP280;60646;55.802;37.032;2023-03-01T00:55:27;98895.97;;;0.61
67515;BMP280;60646;55.802;37.032;2023-03-01T00:57:53;98872.38;;;0.48
67515;BMP280;60646;55.802;37.032;2023-03-01T01:00:19;98888.94;;;0.58
67515;BMP280;60646;55.802;37.032;2023-03-01T01:02:47;98880.38;;;0.44
67515;BMP280;60646;55.802;37.032;2023-03-01T01:05:12;98867.78;;;0.39
67515;BMP280;60646;55.802;37.032;2023-03-01T01:07:38;98893.28;;;0.52
67515;BMP280;60646;55.802;37.032;2023-03-01T01:10:05;98866.59;;;0.31
67515;BMP280;60646;55.802;37.032;2023-03-01T01:12:32;98868.31;;;0.34
67515;BMP280;60646;55.802;37.032;2023-03-01T01:14:58;98873.03;;;0.39
67515;BMP280;60646;55.802;37.032;2023-03-01T01:17:24;98847.91;;;0.17
67515;BMP280;60646;55.802;37.032;2023-03-01T01:19:50;98867.00;;;0.30
67515;BMP280;60646;55.802;37.032;2023-03-01T01:22:15;98883.53;;;0.39
67515;BMP280;60646;55.802;37.032;2023-03-01T01:24:42;98869.75;;;0.26
67515;BMP280;60646;55.802;37.032;2023-03-01T01:27:09;98863.22;;;0.18
67515;BMP280;60646;55.802;37.032;2023-03-01T01:29:34;98884.75;;;0.26
67515;BMP280;60646;55.802;37.032;2023-03-01T01:32:00;98887.38;;;0.26
67515;BMP280;60646;55.802;37.032;2023-03-01T01:34:26;98869.56;;;0.08
67515;BMP280;60646;55.802;37.032;2023-03-01T01:36:52;98886.84;;;0.18
67515;BMP280;60646;55.802;37.032;2023-03-01T01:39:21;98875.09;;;0.10
67515;BMP280;60646;55.802;37.032;2023-03-01T01:41:48;98903.88;;;0.26
67515;BMP280;60646;55.802;37.032;2023-03-01T01:44:25;98908.28;;;0.29
67515;BMP280;60646;55.802;37.032;2023-03-01T01:46:57;98881.50;;;0.09
67515;BMP280;60646;55.802;37.032;2023-03-01T01:52:05;98879.44;;;0.04
67515;BMP280;60646;55.802;37.032;2023-03-01T01:54:46;98871.88;;;0.06
67515;BMP280;60646;55.802;37.032;2023-03-01T01:57:20;98908.06;;;0.24
67515;BMP280;60646;55.802;37.032;2023-03-01T01:59:51;98900.63;;;0.22
67515;BMP280;60646;55.802;37.032;2023-03-01T02:02:18;98907.03;;;0.21
67515;BMP280;60646;55.802;37.032;2023-03-01T02:04:44;98870.63;;;-0.02
67515;BMP280;60646;55.802;37.032;2023-03-01T02:07:18;98887.94;;;0.08
67515;BMP280;60646;55.802;37.032;2023-03-01T02:09:49;98904.53;;;0.18
67515;BMP280;60646;55.802;37.032;2023-03-01T02:12:18;98887.00;;;0.02
67515;BMP280;60646;55.802;37.032;2023-03-01T02:14:44;98863.91;;;-0.16
67515;BMP280;60646;55.802;37.032;2023-03-01T02:17:12;98873.88;;;-0.11
67515;BMP280;60646;55.802;37.032;2023-03-01T02:22:29;98873.16;;;-0.11
67515;BMP280;60646;55.802;37.032;2023-03-01T02:30:20;98908.72;;;0.03
67515;BMP280;60646;55.802;37.032;2023-03-01T02:32:47;98890.56;;;-0.17
67515;BMP280;60646;55.802;37.032;2023-03-01T02:35:17;98921.63;;;-0.03
67515;BMP280;60646;55.802;37.032;2023-03-01T02:37:44;98909.78;;;-0.08
67515;BMP280;60646;55.802;37.032;2023-03-01T02:40:14;98916.59;;;-0.10
67515;BMP280;60646;55.802;37.032;2023-03-01T02:43:04;98883.44;;;-0.29
67515;BMP280;60646;55.802;37.032;2023-03-01T02:45:33;98897.69;;;-0.30
67515;BMP280;60646;55.802;37.032;2023-03-01T02:47:59;98913.88;;;-0.19
67515;BMP280;60646;55.802;37.032;2023-03-01T02:53:05;98912.81;;;-0.22
67515;BMP280;60646;55.802;37.032;2023-03-01T02:55:33;98879.81;;;-0.48
67515;BMP280;60646;55.802;37.032;2023-03-01T02:58:01;98875.84;;;-0.53
67515;BMP280;60646;55.802;37.032;2023-03-01T03:00:36;98901.03;;;-0.43
67515;BMP280;60646;55.802;37.032;2023-03-01T03:03:05;98918.34;;;-0.32
67515;BMP280;60646;55.802;37.032;2023-03-01T03:05:31;98916.56;;;-0.35
67515;BMP280;60646;55.802;37.032;2023-03-01T03:07:59;98897.16;;;-0.51
67515;BMP280;60646;55.802;37.032;2023-03-01T03:10:27;98911.81;;;-0.40
67515;BMP280;60646;55.802;37.032;2023-03-01T03:12:59;98892.59;;;-0.63
67515;BMP280;60646;55.802;37.032;2023-03-01T03:15:27;98916.88;;;-0.46
67515;BMP280;60646;55.802;37.032;2023-03-01T03:17:56;98920.00;;;-0.51
67515;BMP280;60646;55.802;37.032;2023-03-01T03:20:24;98893.22;;;-0.71
67515;BMP280;60646;55.802;37.032;2023-03-01T03:22:53;98916.31;;;-0.54
67515;BMP280;60646;55.802;37.032;2023-03-01T03:25:19;98918.63;;;-0.56
67515;BMP280;60646;55.802;37.032;2023-03-01T03:27:47;98914.22;;;-0.59
67515;BMP280;60646;55.802;37.032;2023-03-01T03:30:17;98907.50;;;-0.60
67515;BMP280;60646;55.802;37.032;2023-03-01T03:32:44;98908.31;;;-0.63
67515;BMP280;60646;55.802;37.032;2023-03-01T03:35:24;98922.63;;;-0.64
67515;BMP280;60646;55.802;37.032;2023-03-01T03:37:51;98917.44;;;-0.67
67515;BMP280;60646;55.802;37.032;2023-03-01T03:40:30;98921.31;;;-0.72
67515;BMP280;60646;55.802;37.032;2023-03-01T03:42:56;98919.88;;;-0.73
67515;BMP280;60646;55.802;37.032;2023-03-01T03:45:40;98896.97;;;-0.85
67515;BMP280;60646;55.802;37.032;2023-03-01T03:48:08;98919.94;;;-0.76
67515;BMP280;60646;55.802;37.032;2023-03-01T03:50:38;98921.81;;;-0.77
67515;BMP280;60646;55.802;37.032;2023-03-01T03:53:07;98915.63;;;-0.83
67515;BMP280;60646;55.802;37.032;2023-03-01T03:55:33;98905.53;;;-0.97
67515;BMP280;60646;55.802;37.032;2023-03-01T03:58:00;98911.06;;;-0.95
67515;BMP280;60646;55.802;37.032;2023-03-01T04:00:43;98928.75;;;-0.83
67515;BMP280;60646;55.802;37.032;2023-03-01T04:03:10;98924.31;;;-0.86
67515;BMP280;60646;55.802;37.032;2023-03-01T04:05:38;98935.13;;;-0.84
67515;BMP280;60646;55.802;37.032;2023-03-01T04:08:05;98935.97;;;-0.87
67515;BMP280;60646;55.802;37.032;2023-03-01T04:10:37;98915.53;;;-1.08
67515;BMP280;60646;55.802;37.032;2023-03-01T04:13:04;98937.50;;;-0.90
67515;BMP280;60646;55.802;37.032;2023-03-01T04:15:32;98944.63;;;-0.90
67515;BMP280;60646;55.802;37.032;2023-03-01T04:17:59;98897.41;;;-1.15
67515;BMP280;60646;55.802;37.032;2023-03-01T04:20:30;98932.47;;;-0.97
67515;BMP280;60646;55.802;37.032;2023-03-01T04:22:59;98937.59;;;-0.93
67515;BMP280;60646;55.802;37.032;2023-03-01T04:25:25;98934.66;;;-0.95
67515;BMP280;60646;55.802;37.032;2023-03-01T04:27:51;98917.84;;;-1.10
67515;BMP280;60646;55.802;37.032;2023-03-01T04:30:17;98926.00;;;-1.08
67515;BMP280;60646;55.802;37.032;2023-03-01T04:32:43;98950.31;;;-0.92
67515;BMP280;60646;55.802;37.032;2023-03-01T04:35:09;98924.56;;;-1.09
67515;BMP280;60646;55.802;37.032;2023-03-01T04:37:34;98954.81;;;-0.92
67515;BMP280;60646;55.802;37.032;2023-03-01T04:40:01;98955.84;;;-0.90
67515;BMP280;60646;55.802;37.032;2023-03-01T04:42:37;98919.41;;;-1.13
67515;BMP280;60646;55.802;37.032;2023-03-01T04:45:04;98928.31;;;-1.10
67515;BMP280;60646;55.802;37.032;2023-03-01T04:47:40;98944.19;;;-1.01
67515;BMP280;60646;55.802;37.032;2023-03-01T04:50:07;98929.81;;;-1.09
67515;BMP280;60646;55.802;37.032;2023-03-01T04:52:33;98953.97;;;-0.89
67515;BMP280;60646;55.802;37.032;2023-03-01T04:54:59;98940.09;;;-1.02
67515;BMP280;60646;55.802;37.032;2023-03-01T04:57:25;98966.56;;;-0.84
67515;BMP280;60646;55.802;37.032;2023-03-01T04:59:50;98972.56;;;-0.83
67515;BMP280;60646;55.802;37.032;2023-03-01T05:02:16;98947.75;;;-0.95
67515;BMP280;60646;55.802;37.032;2023-03-01T05:04:41;98970.97;;;-0.81
67515;BMP280;60646;55.802;37.032;2023-03-01T05:07:07;98960.59;;;-0.84
67515;BMP280;60646;55.802;37.032;2023-03-01T05:09:33;98947.34;;;-0.94
67515;BMP280;60646;55.802;37.032;2023-03-01T05:11:59;98944.50;;;-0.99
67515;BMP280;60646;55.802;37.032;2023-03-01T05:14:25;98967.94;;;-0.79
67515;BMP280;60646;55.802;37.032;2023-03-01T05:16:50;98970.25;;;-0.81
67515;BMP280;60646;55.802;37.032;2023-03-01T05:19:16;98976.22;;;-0.81
67515;BMP280;60646;55.802;37.032;2023-03-01T05:21:43;98968.69;;;-0.79
67515;BMP280;60646;55.802;37.032;2023-03-01T05:24:28;98977.19;;;-0.75
67515;BMP280;60646;55.802;37.032;2023-03-01T05:26:54;98961.00;;;-0.86
67515;BMP280;60646;55.802;37.032;2023-03-01T05:29:23;98984.22;;;-0.72
67515;BMP280;60646;55.802;37.032;2023-03-01T05:31:57;98978.81;;;-0.65
67515;BMP280;60646;55.802;37.032;2023-03-01T05:34:34;98986.25;;;-0.63
67515;BMP280;60646;55.802;37.032;2023-03-01T05:37:01;98967.03;;;-0.73
67515;BMP280;60646;55.802;37.032;2023-03-01T05:39:28;98991.72;;;-0.58
67515;BMP280;60646;55.802;37.032;2023-03-01T05:41:58;98994.25;;;-0.54
67515;BMP280;60646;55.802;37.032;2023-03-01T05:44:25;98971.75;;;-0.68
67515;BMP280;60646;55.802;37.032;2023-03-01T05:46:51;98965.69;;;-0.65
67515;BMP280;60646;55.802;37.032;2023-03-01T05:49:17;98977.78;;;-0.55
67515;BMP280;60646;55.802;37.032;2023-03-01T05:51:47;98985.56;;;-0.51
67515;BMP280;60646;55.802;37.032;2023-03-01T05:54:13;99010.34;;;-0.39
67515;BMP280;60646;55.802;37.032;2023-03-01T05:56:39;98975.69;;;-0.60
67515;BMP280;60646;55.802;37.032;2023-03-01T05:59:05;98972.44;;;-0.64
67515;BMP280;60646;55.802;37.032;2023-03-01T06:01:32;99012.47;;;-0.34
67515;BMP280;60646;55.802;37.032;2023-03-01T06:03:59;99022.13;;;-0.31
67515;BMP280;60646;55.802;37.032;2023-03-01T06:06:25;98996.19;;;-0.42
67515;BMP280;60646;55.802;37.032;2023-03-01T06:08:51;99023.94;;;-0.28
67515;BMP280;60646;55.802;37.032;2023-03-01T06:11:17;99006.16;;;-0.37
67515;BMP280;60646;55.802;37.032;2023-03-01T06:13:44;99019.19;;;-0.33
67515;BMP280;60646;55.802;37.032;2023-03-01T06:16:10;99020.72;;;-0.20
67515;BMP280;60646;55.802;37.032;2023-03-01T06:18:37;98984.94;;;-0.43
67515;BMP280;60646;55.802;37.032;2023-03-01T06:21:04;99021.75;;;-0.17
67515;BMP280;60646;55.802;37.032;2023-03-01T06:23:30;99011.75;;;-0.22
67515;BMP280;60646;55.802;37.032;2023-03-01T06:25:56;99020.59;;;-0.16
67515;BMP280;60646;55.802;37.032;2023-03-01T06:28:22;99001.06;;;-0.28
67515;BMP280;60646;55.802;37.032;2023-03-01T06:30:49;99006.22;;;-0.24
67515;BMP280;60646;55.802;37.032;2023-03-01T06:33:15;98985.69;;;-0.42
67515;BMP280;60646;55.802;37.032;2023-03-01T06:35:41;99016.19;;;-0.19
67515;BMP280;60646;55.802;37.032;2023-03-01T06:38:07;99005.59;;;-0.28
67515;BMP280;60646;55.802;37.032;2023-03-01T06:40:33;99022.09;;;-0.15
67515;BMP280;60646;55.802;37.032;2023-03-01T06:43:01;99017.34;;;-0.20
67515;BMP280;60646;55.802;37.032;2023-03-01T06:45:27;99035.63;;;-0.04
67515;BMP280;60646;55.802;37.032;2023-03-01T06:47:56;99010.72;;;-0.25
67515;BMP280;60646;55.802;37.032;2023-03-01T06:50:26;99012.84;;;-0.20
67515;BMP280;60646;55.802;37.032;2023-03-01T06:52:55;99033.53;;;-0.09
67515;BMP280;60646;55.802;37.032;2023-03-01T06:55:21;99037.94;;;-0.06
67515;BMP280;60646;55.802;37.032;2023-03-01T06:57:47;99049.72;;;0.02
67515;BMP280;60646;55.802;37.032;2023-03-01T07:00:13;99042.16;;;0.04
67515;BMP280;60646;55.802;37.032;2023-03-01T07:02:39;99018.38;;;-0.18
67515;BMP280;60646;55.802;37.032;2023-03-01T07:05:06;99022.19;;;-0.06
67515;BMP280;60646;55.802;37.032;2023-03-01T07:07:33;98948.63;;;-0.57
67515;BMP280;60646;55.802;37.032;2023-03-01T07:10:00;99002.44;;;-0.23
67515;BMP280;60646;55.802;37.032;2023-03-01T07:12:26;98941.25;;;-0.62
67515;BMP280;60646;55.802;37.032;2023-03-01T07:14:51;99013.38;;;-0.12
67515;BMP280;60646;55.802;37.032;2023-03-01T07:17:20;99000.75;;;-0.17
67515;BMP280;60646;55.802;37.032;2023-03-01T07:19:46;98968.38;;;-0.39
67515;BMP280;60646;55.802;37.032;2023-03-01T07:22:12;99041.97;;;0.11
67515;BMP280;60646;55.802;37.032;2023-03-01T07:24:37;99044.06;;;0.16
67515;BMP280;60646;55.802;37.032;2023-03-01T07:27:03;99050.69;;;0.21
67515;BMP280;60646;55.802;37.032;2023-03-01T10:05:54;99159.41;;;0.49
67515;BMP280;60646;55.802;37.032;2023-03-01T10:08:29;99163.97;;;0.86
67515;BMP280;60646;55.802;37.032;2023-03-01T10:10:58;99162.28;;;1.05
67515;BMP280;60646;55.802;37.032;2023-03-01T10:13:46;99170.09;;;1.43
67515;BMP280;60646;55.802;37.032;2023-03-01T10:19:11;99150.97;;;1.76
67515;BMP280;60646;55.802;37.032;2023-03-01T10:21:44;99137.19;;;1.94
67515;BMP280;60646;55.802;37.032;2023-03-01T10:24:16;99143.41;;;2.09
67515;BMP280;60646;55.802;37.032;2023-03-01T10:32:33;99166.81;;;2.60
67515;BMP280;60646;55.802;37.032;2023-03-01T10:39:20;99153.53;;;2.82
67515;BMP280;60646;55.802;37.032;2023-03-01T10:42:28;99093.13;;;2.56
67515;BMP280;60646;55.802;37.032;2023-03-01T10:44:57;99084.81;;;2.58
67515;BMP280;60646;55.802;37.032;2023-03-01T10:47:27;99147.00;;;3.04
67515;BMP280;60646;55.802;37.032;2023-03-01T10:49:59;99102.44;;;2.88
67515;BMP280;60646;55.802;37.032;2023-03-01T10:52:37;99126.38;;;3.12
67515;BMP280;60646;55.802;37.032;2023-03-01T10:58:19;99130.59;;;3.28
67515;BMP280;60646;55.802;37.032;2023-03-01T11:03:15;99144.28;;;3.35
67515;BMP280;60646;55.802;37.032;2023-03-01T11:08:29;99150.88;;;3.49
67515;BMP280;60646;55.802;37.032;2023-03-01T11:16:43;99153.06;;;3.68
67515;BMP280;60646;55.802;37.032;2023-03-01T11:21:39;99123.16;;;3.71
67515;BMP280;60646;55.802;37.032;2023-03-01T11:24:10;99148.91;;;3.95
67515;BMP280;60646;55.802;37.032;2023-03-01T11:26:41;99112.09;;;3.82
67515;BMP280;60646;55.802;37.032;2023-03-01T11:29:18;99110.34;;;3.88
67515;BMP280;60646;55.802;37.032;2023-03-01T11:31:47;99111.66;;;3.93
67515;BMP280;60646;55.802;37.032;2023-03-01T11:34:19;99144.00;;;4.20
67515;BMP280;60646;55.802;37.032;2023-03-01T11:39:29;99159.13;;;4.29
67515;BMP280;60646;55.802;37.032;2023-03-01T11:42:11;99154.56;;;4.30
67515;BMP280;60646;55.802;37.032;2023-03-01T11:44:40;99131.13;;;4.13
67515;BMP280;60646;55.802;37.032;2023-03-01T11:47:31;99164.09;;;4.27
67515;BMP280;60646;55.802;37.032;2023-03-01T11:50:17;99163.09;;;4.25
67515;BMP280;60646;55.802;37.032;2023-03-01T11:53:09;99174.25;;;4.19
67515;BMP280;60646;55.802;37.032;2023-03-01T11:56:05;99142.16;;;4.03
67515;BMP280;60646;55.802;37.032;2023-03-01T11:58:41;99167.66;;;4.15
67515;BMP280;60646;55.802;37.032;2023-03-01T12:07:50;99159.56;;;4.18
67515;BMP280;60646;55.802;37.032;2023-03-01T12:12:53;99172.19;;;4.23
67515;BMP280;60646;55.802;37.032;2023-03-01T12:15:32;99161.06;;;4.10
67515;BMP280;60646;55.802;37.032;2023-03-01T12:20:37;99192.31;;;4.21
67515;BMP280;60646;55.802;37.032;2023-03-01T12:23:34;99180.28;;;4.20
67515;BMP280;60646;55.802;37.032;2023-03-01T12:26:02;99189.81;;;4.17
67515;BMP280;60646;55.802;37.032;2023-03-01T12:50:26;99189.28;;;3.77
67515;BMP280;60646;55.802;37.032;2023-03-01T12:52:58;99172.59;;;3.62
67515;BMP280;60646;55.802;37.032;2023-03-01T12:55:31;99198.09;;;3.74
67515;BMP280;60646;55.802;37.032;2023-03-01T12:58:16;99177.28;;;3.58
67515;BMP280;60646;55.802;37.032;2023-03-01T13:03:48;99197.22;;;3.68
67515;BMP280;60646;55.802;37.032;2023-03-01T13:09:25;99187.97;;;3.63
67515;BMP280;60646;55.802;37.032;2023-03-01T13:11:53;99173.72;;;3.52
67515;BMP280;60646;55.802;37.032;2023-03-01T13:16:54;99161.44;;;3.40
67515;BMP280;60646;55.802;37.032;2023-03-01T13:19:21;99190.31;;;3.52
67515;BMP280;60646;55.802;37.032;2023-03-01T13:21:49;99182.09;;;3.50
67515;BMP280;60646;55.802;37.032;2023-03-01T13:24:38;99180.19;;;3.51
67515;BMP280;60646;55.802;37.032;2023-03-01T13:34:57;99167.31;;;3.44
67515;BMP280;60646;55.802;37.032;2023-03-01T13:37:32;99160.97;;;3.41
67515;BMP280;60646;55.802;37.032;2023-03-01T13:40:02;99158.34;;;3.41
67515;BMP280;60646;55.802;37.032;2023-03-01T13:42:44;99143.81;;;3.37
67515;BMP280;60646;55.802;37.032;2023-03-01T13:47:41;99140.75;;;3.38
67515;BMP280;60646;55.802;37.032;2023-03-01T13:50:18;99129.44;;;3.29
67515;BMP280;60646;55.802;37.032;2023-03-01T13:52:49;99119.78;;;3.25
67515;BMP280;60646;55.802;37.032;2023-03-01T13:55:42;99127.69;;;3.35
67515;BMP280;60646;55.802;37.032;2023-03-01T14:00:45;99097.19;;;3.06
67515;BMP280;60646;55.802;37.032;2023-03-01T14:03:14;99125.63;;;3.30
67515;BMP280;60646;55.802;37.032;2023-03-01T14:06:03;99132.25;;;3.34
67515;BMP280;60646;55.802;37.032;2023-03-01T14:08:30;99124.91;;;3.29
67515;BMP280;60646;55.802;37.032;2023-03-01T14:11:03;99129.28;;;3.32
67515;BMP280;60646;55.802;37.032;2023-03-01T14:19:20;99095.91;;;3.20
67515;BMP280;60646;55.802;37.032;2023-03-01T14:21:59;99084.91;;;3.12
67515;BMP280;60646;55.802;37.032;2023-03-01T14:24:26;99083.84;;;3.10
67515;BMP280;60646;55.802;37.032;2023-03-01T14:26:52;99085.75;;;3.09
67515;BMP280;60646;55.802;37.032;2023-03-01T14:29:33;99084.16;;;3.12
67515;BMP280;60646;55.802;37.032;2023-03-01T14:32:09;99093.81;;;3.15
67515;BMP280;60646;55.802;37.032;2023-03-01T14:34:35;99092.34;;;3.14
67515;BMP280;60646;55.802;37.032;2023-03-01T14:37:31;99077.69;;;3.04
67515;BMP280;60646;55.802;37.032;2023-03-01T14:39:58;99106.59;;;3.16
67515;BMP280;60646;55.802;37.032;2023-03-01T14:42:28;99088.56;;;3.15
67515;BMP280;60646;55.802;37.032;2023-03-01T14:44:57;99079.28;;;3.01
67515;BMP280;60646;55.802;37.032;2023-03-01T14:47:32;99087.22;;;3.10
67515;BMP280;60646;55.802;37.032;2023-03-01T14:50:31;99078.72;;;3.06
67515;BMP280;60646;55.802;37.032;2023-03-01T14:53:01;99056.44;;;2.80
67515;BMP280;60646;55.802;37.032;2023-03-01T14:55:33;99070.50;;;2.86
67515;BMP280;60646;55.802;37.032;2023-03-01T14:58:06;99091.75;;;3.01
67515;BMP280;60646;55.802;37.032;2023-03-01T15:00:35;99090.72;;;2.98
67515;BMP280;60646;55.802;37.032;2023-03-01T15:03:12;99070.78;;;2.79
67515;BMP280;60646;55.802;37.032;2023-03-01T15:05:40;99098.31;;;2.96
67515;BMP280;60646;55.802;37.032;2023-03-01T15:08:07;99087.50;;;2.94
67515;BMP280;60646;55.802;37.032;2023-03-01T15:10:35;99077.94;;;2.78
67515;BMP280;60646;55.802;37.032;2023-03-01T15:13:22;99079.28;;;2.83
67515;BMP280;60646;55.802;37.032;2023-03-01T15:15:48;99071.34;;;2.74
67515;BMP280;60646;55.802;37.032;2023-03-01T15:18:26;99084.56;;;2.83
67515;BMP280;60646;55.802;37.032;2023-03-01T15:20:53;99054.66;;;2.59
67515;BMP280;60646;55.802;37.032;2023-03-01T15:23:27;99080.31;;;2.76
67515;BMP280;60646;55.802;37.032;2023-03-01T15:25:54;99100.22;;;2.87
67515;BMP280;60646;55.802;37.032;2023-03-01T15:28:32;99074.88;;;2.71
67515;BMP280;60646;55.802;37.032;2023-03-01T15:31:06;99084.09;;;2.75
67515;BMP280;60646;55.802;37.032;2023-03-01T15:33:38;99082.47;;;2.78
67515;BMP280;60646;55.802;37.032;2023-03-01T15:38:57;99097.75;;;2.83
67515;BMP280;60646;55.802;37.032;2023-03-01T15:41:52;99094.22;;;2.86
67515;BMP280;60646;55.802;37.032;2023-03-01T15:44:26;99072.22;;;2.71
67515;BMP280;60646;55.802;37.032;2023-03-01T15:46:52;99070.44;;;2.68
67515;BMP280;60646;55.802;37.032;2023-03-01T15:49:32;99093.06;;;2.87
67515;BMP280;60646;55.802;37.032;2023-03-01T15:51:58;99093.06;;;2.87
67515;BMP280;60646;55.802;37.032;2023-03-01T15:54:34;99057.72;;;2.66
67515;BMP280;60646;55.802;37.032;2023-03-01T15:57:00;99062.41;;;2.71
67515;BMP280;60646;55.802;37.032;2023-03-01T15:59:26;99081.03;;;2.86
67515;BMP280;60646;55.802;37.032;2023-03-01T16:01:52;99083.09;;;2.82
67515;BMP280;60646;55.802;37.032;2023-03-01T16:04:18;99091.16;;;2.88
67515;BMP280;60646;55.802;37.032;2023-03-01T16:06:49;99094.97;;;2.87
67515;BMP280;60646;55.802;37.032;2023-03-01T16:09:24;99069.88;;;2.73
67515;BMP280;60646;55.802;37.032;2023-03-01T16:11:51;99095.69;;;2.87
67515;BMP280;60646;55.802;37.032;2023-03-01T16:14:17;99091.91;;;2.88
67515;BMP280;60646;55.802;37.032;2023-03-01T16:16:44;99068.28;;;2.75
67515;BMP280;60646;55.802;37.032;2023-03-01T16:19:13;99067.53;;;2.75
67515;BMP280;60646;55.802;37.032;2023-03-01T16:21:40;99061.09;;;2.76
67515;BMP280;60646;55.802;37.032;2023-03-01T16:24:06;99049.97;;;2.72
67515;BMP280;60646;55.802;37.032;2023-03-01T16:26:32;99076.06;;;2.88
67515;BMP280;60646;55.802;37.032;2023-03-01T16:28:58;99073.28;;;2.92
67515;BMP280;60646;55.802;37.032;2023-03-01T16:31:24;99057.59;;;2.79
67515;BMP280;60646;55.802;37.032;2023-03-01T16:33:59;99056.44;;;2.80
67515;BMP280;60646;55.802;37.032;2023-03-01T16:36:26;99056.59;;;2.86
67515;BMP280;60646;55.802;37.032;2023-03-01T16:38:54;99072.84;;;2.93
67515;BMP280;60646;55.802;37.032;2023-03-01T16:41:23;99047.78;;;2.80
67515;BMP280;60646;55.802;37.032;2023-03-01T16:43:49;99035.75;;;2.69
67515;BMP280;60646;55.802;37.032;2023-03-01T16:46:21;99043.69;;;2.78
67515;BMP280;60646;55.802;37.032;2023-03-01T16:48:48;99053.34;;;2.82
67515;BMP280;60646;55.802;37.032;2023-03-01T16:51:14;99044.72;;;2.81
67515;BMP280;60646;55.802;37.032;2023-03-01T16:53:40;99039.13;;;2.79
67515;BMP280;60646;55.802;37.032;2023-03-01T16:56:08;99068.03;;;2.92
67515;BMP280;60646;55.802;37.032;2023-03-01T16:58:38;99063.19;;;2.90
67515;BMP280;60646;55.802;37.032;2023-03-01T17:01:13;99056.44;;;2.89
67515;BMP280;60646;55.802;37.032;2023-03-01T17:03:39;99023.88;;;2.65
67515;BMP280;60646;55.802;37.032;2023-03-01T17:06:08;99019.75;;;2.64
67515;BMP280;60646;55.802;37.032;2023-03-01T17:08:35;99012.75;;;2.61
67515;BMP280;60646;55.802;37.032;2023-03-01T17:11:12;99028.56;;;2.70
67515;BMP280;60646;55.802;37.032;2023-03-01T17:13:39;99043.97;;;2.81
67515;BMP280;60646;55.802;37.032;2023-03-01T17:16:07;99035.75;;;2.78
67515;BMP280;60646;55.802;37.032;2023-03-01T17:18:33;99025.50;;;2.71
67515;BMP280;60646;55.802;37.032;2023-03-01T17:21:00;99049.72;;;2.88
67515;BMP280;60646;55.802;37.032;2023-03-01T17:23:45;99029.16;;;2.74
67515;BMP280;60646;55.802;37.032;2023-03-01T17:26:12;99023.31;;;2.70
67515;BMP280;60646;55.802;37.032;2023-03-01T17:28:38;99052.34;;;2.88
67515;BMP280;60646;55.802;37.032;2023-03-01T17:31:07;99054.97;;;2.88
67515;BMP280;60646;55.802;37.032;2023-03-01T17:33:33;99005.72;;;2.58
67515;BMP280;60646;55.802;37.032;2023-03-01T17:35:58;99007.50;;;2.61
67515;BMP280;60646;55.802;37.032;2023-03-01T17:38:24;99046.75;;;2.86
67515;BMP280;60646;55.802;37.032;2023-03-01T17:40:50;99042.22;;;2.87
67515;BMP280;60646;55.802;37.032;2023-03-01T17:43:16;99041.47;;;2.86
67515;BMP280;60646;55.802;37.032;2023-03-01T17:45:44;99046.06;;;2.86
67515;BMP280;60646;55.802;37.032;2023-03-01T17:48:14;99039.72;;;2.83
67515;BMP280;60646;55.802;37.032;2023-03-01T17:50:40;99004.69;;;2.64
67515;BMP280;60646;55.802;37.032;2023-03-01T17:53:07;99030.34;;;2.82
67515;BMP280;60646;55.802;37.032;2023-03-01T17:55:36;99025.06;;;2.82
67515;BMP280;60646;55.802;37.032;2023-03-01T17:58:02;98996.94;;;2.70
67515;BMP280;60646;55.802;37.032;2023-03-01T18:00:28;99003.69;;;2.71
67515;BMP280;60646;55.802;37.032;2023-03-01T18:02:54;98988.88;;;2.64
67515;BMP280;60646;55.802;37.032;2023-03-01T18:05:20;98995.47;;;2.69
67515;BMP280;60646;55.802;37.032;2023-03-01T18:07:45;98974.84;;;2.58
67515;BMP280;60646;55.802;37.032;2023-03-01T18:10:11;99013.09;;;2.81
67515;BMP280;60646;55.802;37.032;2023-03-01T18:12:39;98982.75;;;2.67
67515;BMP280;60646;55.802;37.032;2023-03-01T18:15:05;98978.50;;;2.61
67515;BMP280;60646;55.802;37.032;2023-03-01T18:17:32;98975.88;;;2.61
67515;BMP280;60646;55.802;37.032;2023-03-01T18:19:58;98980.38;;;2.69
67515;BMP280;60646;55.802;37.032;2023-03-01T18:22:24;98988.72;;;2.68
67515;BMP280;60646;55.802;37.032;2023-03-01T18:24:50;98992.56;;;2.67
67515;BMP280;60646;55.802;37.032;2023-03-01T18:27:17;98998.69;;;2.73
67515;BMP280;60646;55.802;37.032;2023-03-01T18:30:03;98996.78;;;2.73
67515;BMP280;60646;55.802;37.032;2023-03-01T18:32:30;98965.31;;;2.61
67515;BMP280;60646;55.802;37.032;2023-03-01T18:34:55;98969.13;;;2.60
67515;BMP280;60646;55.802;37.032;2023-03-01T18:37:21;98984.06;;;2.72
67515;BMP280;60646;55.802;37.032;2023-03-01T18:39:50;98960.94;;;2.58
67515;BMP280;60646;55.802;37.032;2023-03-01T18:42:16;98966.47;;;2.60
67515;BMP280;60646;55.802;37.032;2023-03-01T18:44:46;98981.13;;;2.70